Colfontaine, Belgium
Current Conditions -  °F | °C
As of 4:33 AM on Monday 22 Dec 2014 (Local Time) from EBCV Reporting Station
Overcast Overcast  
Wind Chill: 38°   Ceiling: 1600
Heat Index: 46°   Visibility: 6mi
Dew Point: 43°   Wind: 23mph
Humidity: 87%   Direction: 220°SW
Pressure: 30.27"   Gusts: NA
Location:  50.41°N, 3.86°E
Report Text: EBCV 220333Z AUTO 22020KT 9999 SCT013/// OVC016/// 08/06 Q1025 GRN
Loading
Personal Weather Stations






























Interactive Weather Map New forecast layout! Learn more

10-Day Weather Forecast

Advertisements
Track Severe Weather on mobile